sensor_id;sensor_type;location;lat;lon;timestamp;noise_LAeq;noise_LA_min;noise_LA_max;noise_LA01;noise_LA95
45964;Laerm;31671;48.092;11.842;2023-04-03T00:00:19;29.15;27.84;34.17;;
45964;Laerm;31671;48.092;11.842;2023-04-03T00:02:44;29.07;27.84;32.07;;
45964;Laerm;31671;48.092;11.842;2023-04-03T00:05:10;29.20;27.82;31.66;;
45964;Laerm;31671;48.092;11.842;2023-04-03T00:07:36;29.13;27.77;30.43;;
45964;Laerm;31671;48.092;11.842;2023-04-03T00:10:02;29.13;27.89;30.57;;
45964;Laerm;31671;48.092;11.842;2023-04-03T00:12:27;29.22;27.83;32.66;;
45964;Laerm;31671;48.092;11.842;2023-04-03T00:14:53;29.09;27.62;31.39;;
45964;Laerm;31671;48.092;11.842;2023-04-03T00:17:19;29.23;27.76;35.72;;
45964;Laerm;31671;48.092;11.842;2023-04-03T00:19:44;29.12;27.83;31.17;;
45964;Laerm;31671;48.092;11.842;2023-04-03T00:22:10;29.11;27.77;30.26;;
45964;Laerm;31671;48.092;11.842;2023-04-03T00:24:36;29.08;27.78;30.34;;
45964;Laerm;31671;48.092;11.842;2023-04-03T00:27:01;29.14;27.92;32.04;;
45964;Laerm;31671;48.092;11.842;2023-04-03T00:29:27;29.15;27.59;31.37;;
45964;Laerm;31671;48.092;11.842;2023-04-03T00:31:53;29.15;27.82;30.44;;
45964;Laerm;31671;48.092;11.842;2023-04-03T00:34:18;29.18;27.87;30.44;;
45964;Laerm;31671;48.092;11.842;2023-04-03T00:36:44;29.21;27.85;30.48;;
45964;Laerm;31671;48.092;11.842;2023-04-03T00:39:10;29.05;27.58;35.97;;
45964;Laerm;31671;48.092;11.842;2023-04-03T00:41:36;29.12;27.77;32.30;;
45964;Laerm;31671;48.092;11.842;2023-04-03T00:44:17;29.10;27.66;30.40;;
45964;Laerm;31671;48.092;11.842;2023-04-03T00:46:43;29.08;27.88;30.41;;
45964;Laerm;31671;48.092;11.842;2023-04-03T00:49:09;29.11;27.75;30.53;;
45964;Laerm;31671;48.092;11.842;2023-04-03T00:51:35;29.05;27.52;31.18;;
45964;Laerm;31671;48.092;11.842;2023-04-03T00:54:01;29.12;27.89;30.93;;
45964;Laerm;31671;48.092;11.842;2023-04-03T00:56:27;29.11;27.83;30.36;;
45964;Laerm;31671;48.092;11.842;2023-04-03T00:58:59;29.09;27.83;33.41;;
45964;Laerm;31671;48.092;11.842;2023-04-03T01:01:28;29.12;27.70;30.96;;
45964;Laerm;31671;48.092;11.842;2023-04-03T01:03:54;29.11;27.89;30.37;;
45964;Laerm;31671;48.092;11.842;2023-04-03T01:06:21;29.05;27.67;30.21;;
45964;Laerm;31671;48.092;11.842;2023-04-03T01:08:49;29.11;27.81;31.70;;
45964;Laerm;31671;48.092;11.842;2023-04-03T01:11:16;29.16;27.68;30.35;;
45964;Laerm;31671;48.092;11.842;2023-04-03T01:13:42;29.12;27.84;30.50;;
45964;Laerm;31671;48.092;11.842;2023-04-03T01:16:08;29.10;27.66;30.72;;
45964;Laerm;31671;48.092;11.842;2023-04-03T01:18:35;29.09;27.74;31.16;;
45964;Laerm;31671;48.092;11.842;2023-04-03T01:26:15;29.18;27.83;30.93;;
45964;Laerm;31671;48.092;11.842;2023-04-03T01:28:41;29.10;27.76;30.31;;
45964;Laerm;31671;48.092;11.842;2023-04-03T01:33:35;29.07;27.60;30.37;;
45964;Laerm;31671;48.092;11.842;2023-04-03T01:36:01;29.07;27.55;30.25;;
45964;Laerm;31671;48.092;11.842;2023-04-03T01:38:28;29.16;27.93;30.35;;
45964;Laerm;31671;48.092;11.842;2023-04-03T01:40:53;29.44;27.82;33.35;;
45964;Laerm;31671;48.092;11.842;2023-04-03T01:43:19;29.17;27.79;30.95;;
45964;Laerm;31671;48.092;11.842;2023-04-03T01:45:45;29.12;27.84;30.41;;
45964;Laerm;31671;48.092;11.842;2023-04-03T01:48:11;29.15;27.84;30.29;;
45964;Laerm;31671;48.092;11.842;2023-04-03T01:50:36;29.10;27.57;30.40;;
45964;Laerm;31671;48.092;11.842;2023-04-03T01:53:02;29.15;27.83;31.02;;
45964;Laerm;31671;48.092;11.842;2023-04-03T01:55:28;29.13;27.73;31.14;;
45964;Laerm;31671;48.092;11.842;2023-04-03T01:57:54;29.13;27.78;30.42;;
45964;Laerm;31671;48.092;11.842;2023-04-03T02:00:19;29.08;27.73;30.22;;
45964;Laerm;31671;48.092;11.842;2023-04-03T02:02:47;29.09;27.85;30.78;;
45964;Laerm;31671;48.092;11.842;2023-04-03T02:05:13;29.09;27.66;30.93;;
45964;Laerm;31671;48.092;11.842;2023-04-03T02:07:39;29.18;27.88;30.69;;
45964;Laerm;31671;48.092;11.842;2023-04-03T02:10:04;29.21;27.38;31.52;;
45964;Laerm;31671;48.092;11.842;2023-04-03T02:12:30;29.13;27.68;33.15;;
45964;Laerm;31671;48.092;11.842;2023-04-03T02:14:56;29.12;27.67;31.57;;
45964;Laerm;31671;48.092;11.842;2023-04-03T02:17:22;29.16;27.81;30.53;;
45964;Laerm;31671;48.092;11.842;2023-04-03T02:19:47;29.18;27.75;30.61;;
45964;Laerm;31671;48.092;11.842;2023-04-03T02:22:13;29.16;27.56;30.79;;
45964;Laerm;31671;48.092;11.842;2023-04-03T02:24:39;29.11;27.59;30.44;;
45964;Laerm;31671;48.092;11.842;2023-04-03T02:27:05;29.11;27.75;30.44;;
45964;Laerm;31671;48.092;11.842;2023-04-03T02:29:30;29.13;27.88;30.85;;
45964;Laerm;31671;48.092;11.842;2023-04-03T02:31:56;29.08;27.78;30.33;;
45964;Laerm;31671;48.092;11.842;2023-04-03T02:34:22;29.03;27.78;30.22;;
45964;Laerm;31671;48.092;11.842;2023-04-03T02:36:49;29.12;27.71;30.30;;
45964;Laerm;31671;48.092;11.842;2023-04-03T02:39:15;29.07;27.83;30.34;;
45964;Laerm;31671;48.092;11.842;2023-04-03T02:41:41;29.09;27.94;30.29;;
45964;Laerm;31671;48.092;11.842;2023-04-03T02:44:12;29.11;27.79;30.67;;
45964;Laerm;31671;48.092;11.842;2023-04-03T02:46:38;29.19;27.67;31.27;;
45964;Laerm;31671;48.092;11.842;2023-04-03T02:49:03;29.19;27.85;30.41;;
45964;Laerm;31671;48.092;11.842;2023-04-03T02:51:29;29.20;27.85;30.65;;
45964;Laerm;31671;48.092;11.842;2023-04-03T02:53:55;29.19;27.61;30.47;;
45964;Laerm;31671;48.092;11.842;2023-04-03T02:56:24;29.16;27.76;34.21;;
45964;Laerm;31671;48.092;11.842;2023-04-03T02:58:50;29.17;27.95;30.52;;
45964;Laerm;31671;48.092;11.842;2023-04-03T03:01:17;29.14;27.46;30.39;;
45964;Laerm;31671;48.092;11.842;2023-04-03T03:03:43;29.20;27.81;32.93;;
45964;Laerm;31671;48.092;11.842;2023-04-03T03:06:10;29.11;27.83;30.29;;
45964;Laerm;31671;48.092;11.842;2023-04-03T03:08:36;29.17;27.69;31.59;;
45964;Laerm;31671;48.092;11.842;2023-04-03T03:11:02;29.12;27.83;30.40;;
45964;Laerm;31671;48.092;11.842;2023-04-03T03:13:28;29.11;27.82;30.82;;
45964;Laerm;31671;48.092;11.842;2023-04-03T03:15:54;29.09;27.68;30.39;;
45964;Laerm;31671;48.092;11.842;2023-04-03T03:18:19;29.17;27.73;31.87;;
45964;Laerm;31671;48.092;11.842;2023-04-03T03:20:45;29.06;27.69;30.23;;
45964;Laerm;31671;48.092;11.842;2023-04-03T03:23:11;29.18;27.70;30.66;;
45964;Laerm;31671;48.092;11.842;2023-04-03T03:25:39;29.17;27.85;31.33;;
45964;Laerm;31671;48.092;11.842;2023-04-03T03:28:06;29.20;27.85;35.56;;
45964;Laerm;31671;48.092;11.842;2023-04-03T03:30:33;29.22;28.01;31.07;;
45964;Laerm;31671;48.092;11.842;2023-04-03T03:32:58;29.22;27.87;31.75;;
45964;Laerm;31671;48.092;11.842;2023-04-03T03:35:24;29.16;27.91;31.08;;
45964;Laerm;31671;48.092;11.842;2023-04-03T03:37:50;29.20;27.59;31.31;;
45964;Laerm;31671;48.092;11.842;2023-04-03T03:40:15;29.31;27.57;32.04;;
45964;Laerm;31671;48.092;11.842;2023-04-03T03:42:41;29.27;27.95;31.93;;
45964;Laerm;31671;48.092;11.842;2023-04-03T03:45:07;29.25;27.58;31.67;;
45964;Laerm;31671;48.092;11.842;2023-04-03T03:47:33;29.17;27.96;32.55;;
45964;Laerm;31671;48.092;11.842;2023-04-03T03:49:59;29.21;27.72;31.51;;
45964;Laerm;31671;48.092;11.842;2023-04-03T03:52:24;29.18;27.75;31.03;;
45964;Laerm;31671;48.092;11.842;2023-04-03T03:54:50;29.16;27.73;31.13;;
45964;Laerm;31671;48.092;11.842;2023-04-03T03:57:16;29.11;27.63;31.75;;
45964;Laerm;31671;48.092;11.842;2023-04-03T03:59:42;29.26;27.85;31.40;;
45964;Laerm;31671;48.092;11.842;2023-04-03T04:02:07;29.27;27.88;32.15;;
45964;Laerm;31671;48.092;11.842;2023-04-03T04:04:33;29.29;27.88;31.62;;
45964;Laerm;31671;48.092;11.842;2023-04-03T04:06:59;29.25;27.97;31.31;;
45964;Laerm;31671;48.092;11.842;2023-04-03T04:09:25;29.25;27.82;32.67;;
45964;Laerm;31671;48.092;11.842;2023-04-03T04:11:50;29.41;27.79;31.37;;
45964;Laerm;31671;48.092;11.842;2023-04-03T04:14:16;29.51;27.97;33.79;;
45964;Laerm;31671;48.092;11.842;2023-04-03T04:16:42;29.99;27.97;39.93;;
45964;Laerm;31671;48.092;11.842;2023-04-03T04:19:14;33.29;28.10;46.05;;
45964;Laerm;31671;48.092;11.842;2023-04-03T04:21:40;29.52;27.50;32.26;;
45964;Laerm;31671;48.092;11.842;2023-04-03T04:24:06;29.58;28.16;32.23;;
45964;Laerm;31671;48.092;11.842;2023-04-03T04:26:31;29.80;28.02;41.59;;
45964;Laerm;31671;48.092;11.842;2023-04-03T04:28:57;30.27;27.77;42.19;;
45964;Laerm;31671;48.092;11.842;2023-04-03T04:31:23;29.61;28.15;31.83;;
45964;Laerm;31671;48.092;11.842;2023-04-03T04:33:48;29.45;27.85;31.67;;
45964;Laerm;31671;48.092;11.842;2023-04-03T04:36:14;29.43;27.66;36.16;;
45964;Laerm;31671;48.092;11.842;2023-04-03T04:38:41;29.45;27.87;32.67;;
45964;Laerm;31671;48.092;11.842;2023-04-03T04:41:07;29.56;28.04;39.00;;
45964;Laerm;31671;48.092;11.842;2023-04-03T04:43:33;29.41;27.70;31.29;;
45964;Laerm;31671;48.092;11.842;2023-04-03T04:46:00;29.31;28.05;31.67;;
45964;Laerm;31671;48.092;11.842;2023-04-03T04:48:25;29.50;28.08;36.03;;
45964;Laerm;31671;48.092;11.842;2023-04-03T04:50:51;29.37;28.02;31.27;;
45964;Laerm;31671;48.092;11.842;2023-04-03T04:53:17;29.50;27.92;35.51;;
45964;Laerm;31671;48.092;11.842;2023-04-03T04:55:42;29.29;27.74;32.73;;
45964;Laerm;31671;48.092;11.842;2023-04-03T04:58:08;29.30;27.64;31.10;;
45964;Laerm;31671;48.092;11.842;2023-04-03T05:00:34;29.28;27.92;31.27;;
45964;Laerm;31671;48.092;11.842;2023-04-03T05:03:00;29.30;27.97;31.97;;
45964;Laerm;31671;48.092;11.842;2023-04-03T05:05:25;29.42;27.87;33.38;;
45964;Laerm;31671;48.092;11.842;2023-04-03T05:07:51;29.39;27.99;35.85;;
45964;Laerm;31671;48.092;11.842;2023-04-03T05:10:17;29.59;27.93;35.13;;
45964;Laerm;31671;48.092;11.842;2023-04-03T05:12:44;29.32;27.91;32.27;;
45964;Laerm;31671;48.092;11.842;2023-04-03T05:15:10;29.39;28.12;31.72;;
45964;Laerm;31671;48.092;11.842;2023-04-03T05:17:36;29.42;27.87;35.17;;
45964;Laerm;31671;48.092;11.842;2023-04-03T05:20:04;30.55;27.91;44.33;;
45964;Laerm;31671;48.092;11.842;2023-04-03T05:22:30;29.40;28.09;32.48;;
45964;Laerm;31671;48.092;11.842;2023-04-03T05:25:01;29.45;27.89;32.19;;
45964;Laerm;31671;48.092;11.842;2023-04-03T05:27:27;29.40;27.81;36.24;;
45964;Laerm;31671;48.092;11.842;2023-04-03T05:29:54;29.75;27.95;39.16;;
45964;Laerm;31671;48.092;11.842;2023-04-03T05:32:22;29.44;27.90;34.36;;
45964;Laerm;31671;48.092;11.842;2023-04-03T05:34:53;29.37;27.85;31.71;;
45964;Laerm;31671;48.092;11.842;2023-04-03T05:37:19;29.39;28.02;32.24;;
45964;Laerm;31671;48.092;11.842;2023-04-03T05:39:44;29.35;28.02;31.31;;
45964;Laerm;31671;48.092;11.842;2023-04-03T05:42:10;29.38;27.99;34.64;;
45964;Laerm;31671;48.092;11.842;2023-04-03T05:44:36;29.50;28.03;32.47;;
45964;Laerm;31671;48.092;11.842;2023-04-03T05:47:01;29.50;27.88;31.96;;
45964;Laerm;31671;48.092;11.842;2023-04-03T05:49:27;29.48;28.03;33.85;;
45964;Laerm;31671;48.092;11.842;2023-04-03T05:51:53;29.61;28.05;32.98;;
45964;Laerm;31671;48.092;11.842;2023-04-03T05:54:24;29.63;28.00;35.00;;
45964;Laerm;31671;48.092;11.842;2023-04-03T05:56:53;29.41;27.98;37.54;;
45964;Laerm;31671;48.092;11.842;2023-04-03T05:59:20;29.70;28.03;34.13;;
45964;Laerm;31671;48.092;11.842;2023-04-03T06:01:46;29.93;27.87;38.68;;
45964;Laerm;31671;48.092;11.842;2023-04-03T06:04:13;29.99;28.06;39.92;;
45964;Laerm;31671;48.092;11.842;2023-04-03T06:09:10;29.49;27.97;33.42;;
45964;Laerm;31671;48.092;11.842;2023-04-03T06:11:36;29.86;27.91;39.67;;
45964;Laerm;31671;48.092;11.842;2023-04-03T06:14:01;29.52;27.76;39.01;;
45964;Laerm;31671;48.092;11.842;2023-04-03T06:16:28;29.65;27.95;37.06;;
45964;Laerm;31671;48.092;11.842;2023-04-03T06:18:53;29.92;27.90;42.72;;
45964;Laerm;31671;48.092;11.842;2023-04-03T06:21:19;29.59;27.76;34.32;;
45964;Laerm;31671;48.092;11.842;2023-04-03T06:23:45;29.42;27.90;33.52;;
45964;Laerm;31671;48.092;11.842;2023-04-03T06:26:11;29.88;27.89;38.26;;
45964;Laerm;31671;48.092;11.842;2023-04-03T06:28:36;29.71;27.96;39.91;;
45964;Laerm;31671;48.092;11.842;2023-04-03T06:31:02;29.39;28.06;33.78;;
45964;Laerm;31671;48.092;11.842;2023-04-03T06:33:28;29.44;28.02;31.89;;
45964;Laerm;31671;48.092;11.842;2023-04-03T06:35:59;29.36;27.76;31.17;;
45964;Laerm;31671;48.092;11.842;2023-04-03T06:38:25;30.02;28.08;47.43;;
45964;Laerm;31671;48.092;11.842;2023-04-03T06:40:51;29.45;28.09;32.93;;
45964;Laerm;31671;48.092;11.842;2023-04-03T06:43:17;30.07;27.89;45.39;;
45964;Laerm;31671;48.092;11.842;2023-04-03T06:45:42;29.44;28.03;33.04;;
45964;Laerm;31671;48.092;11.842;2023-04-03T06:48:08;29.32;27.91;33.57;;
45964;Laerm;31671;48.092;11.842;2023-04-03T06:50:34;29.59;27.86;41.63;;
45964;Laerm;31671;48.092;11.842;2023-04-03T06:53:00;30.50;27.93;45.61;;
45964;Laerm;31671;48.092;11.842;2023-04-03T06:55:25;29.68;28.00;43.07;;
45964;Laerm;31671;48.092;11.842;2023-04-03T06:57:51;29.48;27.68;33.08;;
45964;Laerm;31671;48.092;11.842;2023-04-03T07:00:17;29.43;27.95;33.33;;
45964;Laerm;31671;48.092;11.842;2023-04-03T07:02:43;29.54;27.92;34.41;;
45964;Laerm;31671;48.092;11.842;2023-04-03T07:05:08;30.00;27.82;40.89;;
45964;Laerm;31671;48.092;11.842;2023-04-03T07:07:34;30.75;27.88;41.22;;
45964;Laerm;31671;48.092;11.842;2023-04-03T07:10:00;29.49;27.87;35.82;;
45964;Laerm;31671;48.092;11.842;2023-04-03T07:12:26;32.63;27.69;53.71;;
45964;Laerm;31671;48.092;11.842;2023-04-03T07:14:51;29.30;28.07;32.25;;
45964;Laerm;31671;48.092;11.842;2023-04-03T07:17:17;29.40;27.98;33.91;;
45964;Laerm;31671;48.092;11.842;2023-04-03T07:19:43;29.50;28.06;35.10;;
45964;Laerm;31671;48.092;11.842;2023-04-03T07:22:08;29.45;28.10;33.27;;
45964;Laerm;31671;48.092;11.842;2023-04-03T07:24:34;30.75;27.95;48.83;;
45964;Laerm;31671;48.092;11.842;2023-04-03T07:27:00;29.54;27.98;40.61;;
45964;Laerm;31671;48.092;11.842;2023-04-03T07:29:26;29.43;27.85;34.15;;
45964;Laerm;31671;48.092;11.842;2023-04-03T07:31:51;29.39;28.08;31.40;;
45964;Laerm;31671;48.092;11.842;2023-04-03T07:34:17;31.17;27.72;50.13;;
45964;Laerm;31671;48.092;11.842;2023-04-03T07:36:43;30.30;28.03;49.24;;
45964;Laerm;31671;48.092;11.842;2023-04-03T07:39:08;29.79;28.12;40.21;;
45964;Laerm;31671;48.092;11.842;2023-04-03T07:41:34;30.43;28.02;47.63;;
45964;Laerm;31671;48.092;11.842;2023-04-03T07:44:00;29.96;27.95;46.90;;
45964;Laerm;31671;48.092;11.842;2023-04-03T07:46:25;30.05;27.90;42.22;;
45964;Laerm;31671;48.092;11.842;2023-04-03T07:48:51;30.53;27.96;48.97;;
45964;Laerm;31671;48.092;11.842;2023-04-03T07:51:17;30.63;28.03;48.37;;
45964;Laerm;31671;48.092;11.842;2023-04-03T07:53:42;34.89;28.12;57.43;;
45964;Laerm;31671;48.092;11.842;2023-04-03T07:56:08;31.29;28.10;48.82;;
45964;Laerm;31671;48.092;11.842;2023-04-03T07:58:34;29.61;27.79;38.67;;
45964;Laerm;31671;48.092;11.842;2023-04-03T08:01:00;29.71;28.17;40.78;;
45964;Laerm;31671;48.092;11.842;2023-04-03T08:03:25;29.76;27.86;39.21;;
45964;Laerm;31671;48.092;11.842;2023-04-03T08:05:51;29.56;27.97;40.55;;
45964;Laerm;31671;48.092;11.842;2023-04-03T08:08:18;29.59;28.15;38.80;;
45964;Laerm;31671;48.092;11.842;2023-04-03T08:10:47;32.22;28.31;51.56;;
45964;Laerm;31671;48.092;11.842;2023-04-03T08:13:13;29.44;28.04;31.04;;
45964;Laerm;31671;48.092;11.842;2023-04-03T08:15:38;29.49;27.99;35.46;;
45964;Laerm;31671;48.092;11.842;2023-04-03T08:18:04;29.64;28.10;37.93;;
45964;Laerm;31671;48.092;11.842;2023-04-03T08:20:30;29.47;28.04;36.78;;
45964;Laerm;31671;48.092;11.842;2023-04-03T08:22:55;34.73;27.86;56.27;;
45964;Laerm;31671;48.092;11.842;2023-04-03T08:25:21;29.48;28.15;36.09;;
45964;Laerm;31671;48.092;11.842;2023-04-03T08:27:47;29.84;28.32;41.64;;
45964;Laerm;31671;48.092;11.842;2023-04-03T08:30:13;32.02;28.13;52.21;;
45964;Laerm;31671;48.092;11.842;2023-04-03T08:32:38;30.65;28.25;46.71;;
45964;Laerm;31671;48.092;11.842;2023-04-03T08:35:04;29.61;27.90;34.15;;
45964;Laerm;31671;48.092;11.842;2023-04-03T08:37:30;29.63;28.32;37.80;;
45964;Laerm;31671;48.092;11.842;2023-04-03T08:39:56;33.93;28.34;52.65;;
45964;Laerm;31671;48.092;11.842;2023-04-03T08:42:41;31.37;28.38;49.85;;
45964;Laerm;31671;48.092;11.842;2023-04-03T08:45:15;31.28;28.38;47.56;;
45964;Laerm;31671;48.092;11.842;2023-04-03T08:50:14;31.13;28.26;53.28;;
45964;Laerm;31671;48.092;11.842;2023-04-03T08:52:41;31.86;28.11;50.99;;
45964;Laerm;31671;48.092;11.842;2023-04-03T08:55:20;29.65;28.38;35.20;;
45964;Laerm;31671;48.092;11.842;2023-04-03T08:57:47;29.75;28.18;34.84;;
45964;Laerm;31671;48.092;11.842;2023-04-03T09:02:46;30.35;28.47;47.50;;
45964;Laerm;31671;48.092;11.842;2023-04-03T09:05:16;29.76;28.20;36.09;;
45964;Laerm;31671;48.092;11.842;2023-04-03T09:07:47;30.39;28.44;48.88;;
45964;Laerm;31671;48.092;11.842;2023-04-03T09:10:15;30.41;28.61;44.50;;
45964;Laerm;31671;48.092;11.842;2023-04-03T09:12:42;30.21;28.55;46.89;;
45964;Laerm;31671;48.092;11.842;2023-04-03T09:15:16;34.97;28.31;54.45;;
45964;Laerm;31671;48.092;11.842;2023-04-03T09:22:38;33.27;28.67;50.79;;
45964;Laerm;31671;48.092;11.842;2023-04-03T09:27:29;31.74;28.41;48.67;;
45964;Laerm;31671;48.092;11.842;2023-04-03T09:29:56;29.77;28.05;37.84;;
45964;Laerm;31671;48.092;11.842;2023-04-03T09:34:51;30.46;28.26;42.79;;
45964;Laerm;31671;48.092;11.842;2023-04-03T09:40:03;29.64;27.98;33.42;;
45964;Laerm;31671;48.092;11.842;2023-04-03T09:42:28;42.80;28.21;64.60;;
45964;Laerm;31671;48.092;11.842;2023-04-03T09:44:59;31.44;28.60;49.33;;
45964;Laerm;31671;48.092;11.842;2023-04-03T09:47:27;29.60;28.25;37.27;;
45964;Laerm;31671;48.092;11.842;2023-04-03T09:52:37;34.43;28.20;55.83;;
45964;Laerm;31671;48.092;11.842;2023-04-03T09:57:40;29.76;28.52;37.24;;
45964;Laerm;31671;48.092;11.842;2023-04-03T10:00:10;29.95;28.73;38.92;;
45964;Laerm;31671;48.092;11.842;2023-04-03T10:02:44;29.94;28.32;33.49;;
45964;Laerm;31671;48.092;11.842;2023-04-03T10:10:38;30.37;28.66;41.89;;
45964;Laerm;31671;48.092;11.842;2023-04-03T10:13:11;29.97;28.33;41.62;;
45964;Laerm;31671;48.092;11.842;2023-04-03T10:15:42;29.81;28.56;36.12;;
45964;Laerm;31671;48.092;11.842;2023-04-03T10:18:15;30.32;28.60;45.96;;
45964;Laerm;31671;48.092;11.842;2023-04-03T10:20:49;37.42;28.75;60.04;;
45964;Laerm;31671;48.092;11.842;2023-04-03T10:23:31;31.20;28.64;47.29;;
45964;Laerm;31671;48.092;11.842;2023-04-03T10:26:02;30.17;28.62;42.77;;
45964;Laerm;31671;48.092;11.842;2023-04-03T10:31:21;29.90;28.50;32.96;;
45964;Laerm;31671;48.092;11.842;2023-04-03T10:33:53;42.42;28.57;62.75;;
45964;Laerm;31671;48.092;11.842;2023-04-03T10:36:25;30.18;28.59;39.67;;
45964;Laerm;31671;48.092;11.842;2023-04-03T10:41:30;32.58;28.48;51.54;;
45964;Laerm;31671;48.092;11.842;2023-04-03T10:44:03;34.74;28.48;55.12;;
45964;Laerm;31671;48.092;11.842;2023-04-03T10:46:35;47.30;28.54;65.53;;
45964;Laerm;31671;48.092;11.842;2023-04-03T10:51:41;29.83;28.00;40.36;;
45964;Laerm;31671;48.092;11.842;2023-04-03T10:56:42;31.23;28.19;52.58;;
45964;Laerm;31671;48.092;11.842;2023-04-03T11:01:45;30.09;28.19;44.19;;
45964;Laerm;31671;48.092;11.842;2023-04-03T11:04:11;29.46;28.10;31.50;;
45964;Laerm;31671;48.092;11.842;2023-04-03T11:06:39;29.91;28.25;35.37;;
45964;Laerm;31671;48.092;11.842;2023-04-03T11:09:20;29.72;28.13;34.76;;
45964;Laerm;31671;48.092;11.842;2023-04-03T11:11:48;29.52;28.11;39.94;;
45964;Laerm;31671;48.092;11.842;2023-04-03T11:14:35;29.50;28.14;31.57;;
45964;Laerm;31671;48.092;11.842;2023-04-03T11:19:41;30.12;28.02;40.89;;
45964;Laerm;31671;48.092;11.842;2023-04-03T11:22:10;31.36;28.28;53.29;;
45964;Laerm;31671;48.092;11.842;2023-04-03T11:24:40;29.81;27.97;37.17;;
45964;Laerm;31671;48.092;11.842;2023-04-03T11:27:11;30.44;28.28;44.33;;
45964;Laerm;31671;48.092;11.842;2023-04-03T11:29:40;29.65;27.95;35.00;;
45964;Laerm;31671;48.092;11.842;2023-04-03T11:34:45;29.65;28.04;32.57;;
45964;Laerm;31671;48.092;11.842;2023-04-03T11:39:53;30.36;28.25;44.42;;
45964;Laerm;31671;48.092;11.842;2023-04-03T11:42:39;29.70;28.28;36.91;;
45964;Laerm;31671;48.092;11.842;2023-04-03T11:45:22;36.42;28.07;57.49;;
45964;Laerm;31671;48.092;11.842;2023-04-03T11:47:50;34.56;28.05;54.85;;
45964;Laerm;31671;48.092;11.842;2023-04-03T12:03:29;33.31;28.77;52.01;;
45964;Laerm;31671;48.092;11.842;2023-04-03T12:05:53;32.01;28.81;49.31;;
45964;Laerm;31671;48.092;11.842;2023-04-03T12:13:32;39.91;28.83;59.64;;
45964;Laerm;31671;48.092;11.842;2023-04-03T12:15:58;31.11;29.05;46.57;;
45964;Laerm;31671;48.092;11.842;2023-04-03T12:21:09;45.69;29.09;65.36;;
45964;Laerm;31671;48.092;11.842;2023-04-03T12:23:56;37.64;29.22;61.70;;
45964;Laerm;31671;48.092;11.842;2023-04-03T12:26:24;30.59;29.27;37.62;;
45964;Laerm;31671;48.092;11.842;2023-04-03T12:28:51;39.49;29.09;59.35;;
45964;Laerm;31671;48.092;11.842;2023-04-03T12:31:18;42.46;29.31;63.89;;
45964;Laerm;31671;48.092;11.842;2023-04-03T12:33:59;42.20;29.46;64.57;;
45964;Laerm;31671;48.092;11.842;2023-04-03T12:39:01;32.61;29.48;43.77;;
45964;Laerm;31671;48.092;11.842;2023-04-03T12:41:30;31.97;29.33;44.86;;
45964;Laerm;31671;48.092;11.842;2023-04-03T12:46:45;31.41;29.51;43.82;;
45964;Laerm;31671;48.092;11.842;2023-04-03T12:49:26;33.04;29.43;53.91;;
45964;Laerm;31671;48.092;11.842;2023-04-03T12:51:56;34.72;29.48;53.61;;
45964;Laerm;31671;48.092;11.842;2023-04-03T12:54:23;30.80;29.20;35.38;;
45964;Laerm;31671;48.092;11.842;2023-04-03T12:56:51;37.26;29.51;56.26;;
45964;Laerm;31671;48.092;11.842;2023-04-03T12:59:21;31.44;29.18;44.28;;
45964;Laerm;31671;48.092;11.842;2023-04-03T13:01:57;34.52;28.56;55.93;;
45964;Laerm;31671;48.092;11.842;2023-04-03T13:04:23;35.56;28.79;57.54;;
45964;Laerm;31671;48.092;11.842;2023-04-03T13:06:49;33.43;28.81;51.61;;
45964;Laerm;31671;48.092;11.842;2023-04-03T13:09:22;30.20;28.77;32.34;;
45964;Laerm;31671;48.092;11.842;2023-04-03T13:11:51;33.37;29.03;56.35;;
45964;Laerm;31671;48.092;11.842;2023-04-03T13:14:21;35.91;28.47;54.05;;
45964;Laerm;31671;48.092;11.842;2023-04-03T13:16:56;34.54;29.07;53.61;;
45964;Laerm;31671;48.092;11.842;2023-04-03T13:19:26;37.24;28.85;54.26;;
45964;Laerm;31671;48.092;11.842;2023-04-03T13:21:54;39.43;29.04;60.18;;
45964;Laerm;31671;48.092;11.842;2023-04-03T13:24:23;38.23;29.00;56.27;;
45964;Laerm;31671;48.092;11.842;2023-04-03T13:26:49;30.42;28.63;41.22;;
45964;Laerm;31671;48.092;11.842;2023-04-03T13:29:27;30.51;29.13;33.01;;
45964;Laerm;31671;48.092;11.842;2023-04-03T13:31:54;30.86;29.30;40.78;;
45964;Laerm;31671;48.092;11.842;2023-04-03T13:34:21;30.69;28.98;34.18;;
45964;Laerm;31671;48.092;11.842;2023-04-03T13:41:42;30.71;29.08;42.29;;
45964;Laerm;31671;48.092;11.842;2023-04-03T13:44:24;30.55;29.13;35.10;;
45964;Laerm;31671;48.092;11.842;2023-04-03T13:46:52;35.34;29.08;56.81;;
45964;Laerm;31671;48.092;11.842;2023-04-03T13:49:22;32.33;29.16;51.97;;
45964;Laerm;31671;48.092;11.842;2023-04-03T13:51:52;31.50;29.06;47.40;;
45964;Laerm;31671;48.092;11.842;2023-04-03T13:54:19;30.72;29.36;35.53;;
45964;Laerm;31671;48.092;11.842;2023-04-03T13:56:45;31.49;29.21;46.79;;
45964;Laerm;31671;48.092;11.842;2023-04-03T14:01:39;38.52;29.16;58.44;;
45964;Laerm;31671;48.092;11.842;2023-04-03T14:04:16;30.79;29.19;36.05;;
45964;Laerm;31671;48.092;11.842;2023-04-03T14:06:41;30.75;29.35;34.42;;
45964;Laerm;31671;48.092;11.842;2023-04-03T14:09:07;30.75;29.45;33.91;;
45964;Laerm;31671;48.092;11.842;2023-04-03T14:11:33;31.17;29.26;48.84;;
45964;Laerm;31671;48.092;11.842;2023-04-03T14:14:00;35.04;29.42;53.09;;
45964;Laerm;31671;48.092;11.842;2023-04-03T14:16:28;31.34;29.38;44.33;;
45964;Laerm;31671;48.092;11.842;2023-04-03T14:18:55;30.75;29.15;37.02;;
45964;Laerm;31671;48.092;11.842;2023-04-03T14:21:21;30.79;29.18;40.27;;
45964;Laerm;31671;48.092;11.842;2023-04-03T14:23:47;31.18;29.19;43.23;;
45964;Laerm;31671;48.092;11.842;2023-04-03T14:26:14;30.98;29.26;40.91;;
45964;Laerm;31671;48.092;11.842;2023-04-03T14:28:40;33.16;29.38;52.74;;
45964;Laerm;31671;48.092;11.842;2023-04-03T14:31:06;31.59;29.39;47.30;;
45964;Laerm;31671;48.092;11.842;2023-04-03T14:33:31;36.91;29.25;58.68;;
45964;Laerm;31671;48.092;11.842;2023-04-03T14:35:57;34.38;28.95;55.98;;
45964;Laerm;31671;48.092;11.842;2023-04-03T14:40:49;42.51;29.40;62.15;;
45964;Laerm;31671;48.092;11.842;2023-04-03T14:43:18;32.38;29.30;52.36;;
45964;Laerm;31671;48.092;11.842;2023-04-03T14:45:43;40.94;29.18;59.75;;
45964;Laerm;31671;48.092;11.842;2023-04-03T14:48:11;30.83;29.18;37.72;;
45964;Laerm;31671;48.092;11.842;2023-04-03T14:50:41;34.44;29.10;56.02;;
45964;Laerm;31671;48.092;11.842;2023-04-03T14:53:07;30.56;28.93;37.94;;
45964;Laerm;31671;48.092;11.842;2023-04-03T14:55:32;30.75;29.25;37.21;;
45964;Laerm;31671;48.092;11.842;2023-04-03T14:57:58;30.45;28.87;34.74;;
45964;Laerm;31671;48.092;11.842;2023-04-03T15:00:24;31.78;28.71;46.84;;
45964;Laerm;31671;48.092;11.842;2023-04-03T15:02:50;39.50;28.48;58.91;;
45964;Laerm;31671;48.092;11.842;2023-04-03T15:05:16;30.17;28.64;33.96;;
45964;Laerm;31671;48.092;11.842;2023-04-03T15:07:43;31.28;28.76;47.55;;